createdAt,value
2018-04-24T00:00:09.135Z,14.1111111111
2018-04-24T00:00:21.572Z,14.1111111111
2018-04-24T00:00:34.008Z,14.1111111111
2018-04-24T00:00:46.485Z,14.1111111111
2018-04-24T00:00:58.919Z,14.0555555556
2018-04-24T00:01:11.347Z,14.1111111111
2018-04-24T00:01:23.771Z,14.1111111111
2018-04-24T00:01:36.270Z,14.0555555556
2018-04-24T00:01:48.691Z,14.0555555556
2018-04-24T00:02:01.133Z,14.0555555556
2018-04-24T00:02:13.620Z,14.1111111111
2018-04-24T00:02:26.026Z,14.0555555556
2018-04-24T00:02:38.431Z,14.0555555556
2018-04-24T00:02:50.853Z,14.0555555556
2018-04-24T00:03:03.280Z,14.0555555556
2018-04-24T00:03:15.685Z,14.0555555556
2018-04-24T00:03:28.101Z,14.0555555556
2018-04-24T00:03:40.524Z,14.0555555556
2018-04-24T00:03:52.951Z,14.0555555556
2018-04-24T00:04:05.387Z,14.0555555556
2018-04-24T00:04:17.872Z,14.0555555556
2018-04-24T00:04:30.288Z,14.0555555556
2018-04-24T00:04:42.699Z,14.0555555556
2018-04-24T00:04:55.104Z,14
2018-04-24T00:05:07.508Z,14.0555555556
2018-04-24T00:05:19.923Z,14.0555555556
2018-04-24T00:05:32.349Z,14
2018-04-24T00:05:44.741Z,14.0555555556
2018-04-24T00:05:57.140Z,14
2018-04-24T00:06:09.619Z,14
2018-04-24T00:06:22.033Z,14
2018-04-24T00:06:34.463Z,14.0555555556
2018-04-24T00:06:46.887Z,14
2018-04-24T00:06:59.300Z,14
2018-04-24T00:07:11.867Z,14
2018-04-24T00:07:24.279Z,14
2018-04-24T00:07:36.676Z,13.9444444444
2018-04-24T00:07:49.080Z,14
2018-04-24T00:08:01.495Z,14
2018-04-24T00:08:13.923Z,14
2018-04-24T00:08:26.330Z,13.9444444444
2018-04-24T00:08:38.783Z,13.9444444444
2018-04-24T00:08:51.238Z,13.9444444444
2018-04-24T00:09:03.654Z,13.9444444444
2018-04-24T00:09:16.064Z,13.9444444444
2018-04-24T00:09:28.487Z,13.9444444444
2018-04-24T00:09:40.895Z,13.9444444444
2018-04-24T00:09:53.990Z,13.9444444444
2018-04-24T00:10:06.749Z,13.9444444444
2018-04-24T00:10:19.152Z,13.9444444444
2018-04-24T00:10:31.627Z,13.8888888889
2018-04-24T00:10:44.027Z,13.9444444444
2018-04-24T00:10:56.485Z,13.8888888889
2018-04-24T00:11:08.901Z,13.8888888889
2018-04-24T00:11:21.312Z,13.8888888889
2018-04-24T00:11:33.725Z,13.8888888889
2018-04-24T00:11:46.157Z,13.8888888889
2018-04-24T00:11:58.578Z,13.8888888889
2018-04-24T00:12:10.998Z,13.8888888889
2018-04-24T00:12:23.664Z,13.8888888889
2018-04-24T00:12:36.080Z,13.8888888889
2018-04-24T00:12:48.509Z,13.8888888889
2018-04-24T00:13:00.930Z,13.8888888889
2018-04-24T00:13:13.346Z,13.8888888889
2018-04-24T00:13:25.761Z,13.8888888889
2018-04-24T00:13:38.319Z,13.8888888889
2018-04-24T00:13:50.736Z,13.8888888889
2018-04-24T00:14:03.171Z,13.8888888889
2018-04-24T00:14:15.591Z,13.8888888889
2018-04-24T00:14:28.000Z,13.8888888889
2018-04-24T00:14:40.393Z,13.8888888889
2018-04-24T00:14:52.818Z,13.8888888889
2018-04-24T00:15:05.220Z,13.8333333333
2018-04-24T00:15:17.692Z,13.8333333333
2018-04-24T00:15:30.116Z,13.8333333333
2018-04-24T00:15:42.520Z,13.8333333333
2018-04-24T00:15:54.945Z,13.8333333333
2018-04-24T00:16:07.338Z,13.8333333333
2018-04-24T00:16:19.798Z,13.8333333333
2018-04-24T00:16:32.220Z,13.8888888889
2018-04-24T00:16:44.670Z,13.8333333333
2018-04-24T00:16:57.075Z,13.8333333333
2018-04-24T00:17:09.492Z,13.8333333333
2018-04-24T00:17:21.985Z,13.8333333333
2018-04-24T00:17:34.402Z,13.8333333333
2018-04-24T00:17:46.798Z,13.8333333333
2018-04-24T00:17:59.254Z,13.8333333333
2018-04-24T00:18:11.809Z,13.7777777778
2018-04-24T00:18:25.102Z,13.8333333333
2018-04-24T00:18:37.992Z,13.7777777778
2018-04-24T00:18:50.429Z,13.7777777778
2018-04-24T00:19:02.840Z,13.7777777778
2018-04-24T00:19:15.237Z,13.7777777778
2018-04-24T00:19:27.643Z,13.7777777778
2018-04-24T00:19:40.067Z,13.7777777778
2018-04-24T00:19:52.509Z,13.7777777778
2018-04-24T00:20:04.919Z,13.7777777778
2018-04-24T00:20:17.443Z,13.7777777778
2018-04-24T00:20:29.865Z,13.7777777778
2018-04-24T00:20:42.295Z,13.7777777778
2018-04-24T00:20:54.708Z,13.7777777778
2018-04-24T00:21:07.117Z,13.7777777778
2018-04-24T00:21:19.566Z,13.7777777778
2018-04-24T00:21:31.988Z,13.7222222222
2018-04-24T00:21:44.417Z,13.7777777778
2018-04-24T00:21:56.826Z,13.7222222222
2018-04-24T00:22:09.219Z,13.7222222222
2018-04-24T00:22:21.695Z,13.7222222222
2018-04-24T00:22:34.089Z,13.7222222222
2018-04-24T00:22:46.591Z,13.7222222222
2018-04-24T00:22:59.017Z,13.7222222222
2018-04-24T00:23:11.421Z,13.7222222222
2018-04-24T00:23:23.840Z,13.7222222222
2018-04-24T00:23:36.303Z,13.7222222222
2018-04-24T00:23:48.701Z,13.7222222222
2018-04-24T00:24:01.148Z,13.7222222222
2018-04-24T00:24:13.557Z,13.7222222222
2018-04-24T00:24:25.964Z,13.7222222222
2018-04-24T00:24:38.364Z,13.7222222222
2018-04-24T00:24:50.772Z,13.7222222222
2018-04-24T00:25:03.167Z,13.7222222222
2018-04-24T00:25:15.588Z,13.7222222222
2018-04-24T00:25:27.993Z,13.7222222222
2018-04-24T00:25:40.393Z,13.7222222222
2018-04-24T00:25:52.809Z,13.6666666667
2018-04-24T00:26:05.524Z,13.7222222222
2018-04-24T00:26:18.505Z,13.7222222222
2018-04-24T00:26:30.915Z,13.7222222222
2018-04-24T00:26:43.320Z,13.6666666667
2018-04-24T00:26:55.712Z,13.6666666667
2018-04-24T00:27:08.121Z,13.6666666667
2018-04-24T00:27:20.550Z,13.7222222222
2018-04-24T00:27:32.941Z,13.6666666667
2018-04-24T00:27:45.429Z,13.7222222222
2018-04-24T00:27:57.845Z,13.6666666667
2018-04-24T00:28:10.270Z,13.6666666667
2018-04-24T00:28:22.687Z,13.6666666667
2018-04-24T00:28:35.148Z,13.6666666667
2018-04-24T00:28:47.550Z,13.6666666667
2018-04-24T00:28:59.970Z,13.6666666667
2018-04-24T00:29:12.396Z,13.6666666667
2018-04-24T00:29:24.859Z,13.6666666667
2018-04-24T00:29:37.271Z,13.6666666667
2018-04-24T00:29:49.710Z,13.6666666667
2018-04-24T00:30:02.109Z,13.6666666667
2018-04-24T00:30:14.518Z,13.6666666667
2018-04-24T00:30:27.061Z,13.6666666667
2018-04-24T00:30:39.473Z,13.6666666667
2018-04-24T00:30:52.129Z,13.6666666667
2018-04-24T00:31:04.561Z,13.6666666667
2018-04-24T00:31:16.966Z,13.6111111111
2018-04-24T00:31:29.358Z,13.6111111111
2018-04-24T00:31:41.762Z,13.6111111111
2018-04-24T00:31:54.183Z,13.6111111111
2018-04-24T00:32:06.613Z,13.6111111111
2018-04-24T00:32:19.101Z,13.6111111111
2018-04-24T00:32:31.522Z,13.6111111111
2018-04-24T00:32:43.946Z,13.6111111111
2018-04-24T00:32:56.353Z,13.6111111111
2018-04-24T00:33:08.774Z,13.6111111111
2018-04-24T00:33:21.223Z,13.6111111111
2018-04-24T00:33:33.657Z,13.5555555556
2018-04-24T00:33:46.080Z,13.5555555556
2018-04-24T00:33:58.518Z,13.6111111111
2018-04-24T00:34:10.990Z,13.5555555556
2018-04-24T00:34:23.817Z,13.5555555556
2018-04-24T00:34:36.599Z,13.5555555556
2018-04-24T00:34:49.065Z,13.5555555556
2018-04-24T00:35:01.486Z,13.5555555556
2018-04-24T00:35:13.912Z,13.5555555556
2018-04-24T00:35:26.316Z,13.5555555556
2018-04-24T00:35:38.724Z,13.5555555556
2018-04-24T00:35:51.129Z,13.5
2018-04-24T00:36:03.528Z,13.5555555556
2018-04-24T00:36:16.013Z,13.5
2018-04-24T00:36:28.405Z,13.5
2018-04-24T00:36:40.811Z,13.5
2018-04-24T00:36:53.216Z,13.5
2018-04-24T00:37:05.634Z,13.5
2018-04-24T00:37:18.051Z,13.5555555556
2018-04-24T00:37:30.464Z,13.5
2018-04-24T00:37:42.879Z,13.5
2018-04-24T00:37:55.320Z,13.5
2018-04-24T00:38:07.717Z,13.4444444444
2018-04-24T00:38:20.118Z,13.4444444444
2018-04-24T00:38:32.507Z,13.4444444444
2018-04-24T00:38:44.904Z,13.4444444444
2018-04-24T00:38:57.291Z,13.5
2018-04-24T00:39:09.776Z,13.4444444444
2018-04-24T00:39:22.182Z,13.4444444444
2018-04-24T00:39:34.592Z,13.4444444444
2018-04-24T00:39:47.091Z,13.4444444444
2018-04-24T00:39:59.551Z,13.4444444444
2018-04-24T00:40:11.994Z,13.4444444444
2018-04-24T00:40:24.388Z,13.4444444444
2018-04-24T00:40:36.799Z,13.4444444444
2018-04-24T00:40:49.209Z,13.4444444444
2018-04-24T00:41:01.695Z,13.3888888889
2018-04-24T00:41:14.113Z,13.3888888889
2018-04-24T00:41:26.534Z,13.3888888889
2018-04-24T00:41:38.952Z,13.3888888889
2018-04-24T00:41:51.352Z,13.3888888889
2018-04-24T00:42:03.746Z,13.3888888889
2018-04-24T00:42:16.295Z,13.3888888889
2018-04-24T00:42:28.723Z,13.3888888889
2018-04-24T00:42:41.181Z,13.3888888889
2018-04-24T00:42:53.595Z,13.3888888889
2018-04-24T00:43:05.998Z,13.3888888889
2018-04-24T00:43:18.498Z,13.3888888889
2018-04-24T00:43:30.905Z,13.3888888889
2018-04-24T00:43:43.320Z,13.3333333333
2018-04-24T00:43:55.736Z,13.3333333333
2018-04-24T00:44:08.136Z,13.3888888889
2018-04-24T00:44:20.548Z,13.3888888889
2018-04-24T00:44:33.106Z,13.3333333333
2018-04-24T00:44:45.514Z,13.3333333333
2018-04-24T00:44:57.915Z,13.3333333333
2018-04-24T00:45:10.341Z,13.3333333333
2018-04-24T00:45:22.754Z,13.3333333333
2018-04-24T00:45:35.172Z,13.3333333333
2018-04-24T00:45:47.995Z,13.3333333333
2018-04-24T00:46:01.317Z,13.3333333333
2018-04-24T00:46:13.790Z,13.3333333333
2018-04-24T00:46:26.196Z,13.3333333333
2018-04-24T00:46:38.615Z,13.3333333333
2018-04-24T00:46:51.013Z,13.3333333333
2018-04-24T00:47:03.414Z,13.3333333333
2018-04-24T00:47:15.831Z,13.3333333333
2018-04-24T00:47:28.240Z,13.3333333333
2018-04-24T00:47:40.652Z,13.3333333333
2018-04-24T00:47:53.081Z,13.3333333333
2018-04-24T00:48:05.517Z,13.3333333333
2018-04-24T00:48:18.004Z,13.3333333333
2018-04-24T00:48:30.417Z,13.3333333333
2018-04-24T00:48:42.816Z,13.3333333333
2018-04-24T00:48:55.225Z,13.3333333333
2018-04-24T00:49:07.637Z,13.3333333333
2018-04-24T00:49:20.053Z,13.3333333333
2018-04-24T00:49:32.499Z,13.2777777778
2018-04-24T00:49:44.926Z,13.2777777778
2018-04-24T00:49:57.320Z,13.2777777778
2018-04-24T00:50:09.779Z,13.3333333333
2018-04-24T00:50:22.247Z,13.2777777778
2018-04-24T00:50:34.769Z,13.3333333333
2018-04-24T00:50:47.251Z,13.2777777778
2018-04-24T00:50:59.673Z,13.2777777778
2018-04-24T00:51:12.088Z,13.2777777778
2018-04-24T00:51:24.495Z,13.2777777778
2018-04-24T00:51:36.908Z,13.2777777778
2018-04-24T00:51:49.301Z,13.2777777778
2018-04-24T00:52:01.700Z,13.2777777778
2018-04-24T00:52:14.134Z,13.2222222222
2018-04-24T00:52:26.542Z,13.2222222222
2018-04-24T00:52:38.944Z,13.2777777778
2018-04-24T00:52:51.371Z,13.2777777778
2018-04-24T00:53:03.781Z,13.2777777778
2018-04-24T00:53:16.253Z,13.2777777778
2018-04-24T00:53:28.682Z,13.2777777778
2018-04-24T00:53:41.307Z,13.2777777778
2018-04-24T00:53:53.717Z,13.2777777778
2018-04-24T00:54:06.123Z,13.2777777778
2018-04-24T00:54:18.511Z,13.2222222222
2018-04-24T00:54:30.952Z,13.2222222222
2018-04-24T00:54:43.353Z,13.2222222222
2018-04-24T00:54:55.770Z,13.2222222222
2018-04-24T00:55:08.260Z,13.2222222222
2018-04-24T00:55:20.756Z,13.2222222222
2018-04-24T00:55:33.153Z,13.2222222222
2018-04-24T00:55:45.537Z,13.2222222222
2018-04-24T00:55:57.964Z,13.1666666667
2018-04-24T00:56:10.367Z,13.1666666667
2018-04-24T00:56:22.761Z,13.1666666667
2018-04-24T00:56:35.166Z,13.2222222222
2018-04-24T00:56:47.642Z,13.2222222222
2018-04-24T00:57:00.049Z,13.2222222222
2018-04-24T00:57:12.455Z,13.2222222222
2018-04-24T00:57:24.875Z,13.1666666667
2018-04-24T00:57:37.291Z,13.2222222222
2018-04-24T00:57:49.692Z,13.1666666667
2018-04-24T00:58:02.116Z,13.1666666667
2018-04-24T00:58:14.538Z,13.1666666667
2018-04-24T00:58:26.941Z,13.1666666667
2018-04-24T00:58:39.349Z,13.1666666667
2018-04-24T00:58:51.770Z,13.1666666667
2018-04-24T00:59:04.268Z,13.1666666667
2018-04-24T00:59:16.679Z,13.1666666667
2018-04-24T00:59:29.071Z,13.1666666667
2018-04-24T00:59:41.491Z,13.1666666667
2018-04-24T00:59:53.899Z,13.1666666667
2018-04-24T01:00:06.549Z,13.1666666667
2018-04-24T01:00:19.011Z,13.1666666667
2018-04-24T01:00:31.518Z,13.1666666667
2018-04-24T01:00:43.973Z,13.1111111111
2018-04-24T01:00:56.393Z,13.1111111111
2018-04-24T01:01:08.825Z,13.1666666667
2018-04-24T01:01:21.314Z,13.1666666667
2018-04-24T01:01:33.750Z,13.1111111111
2018-04-24T01:01:46.159Z,13.1666666667
2018-04-24T01:01:58.567Z,13.1111111111
2018-04-24T01:02:10.987Z,13.1111111111
2018-04-24T01:02:23.400Z,13.1111111111
2018-04-24T01:02:35.814Z,13.1666666667
2018-04-24T01:02:48.238Z,13.1111111111
2018-04-24T01:03:00.650Z,13.1111111111
2018-04-24T01:03:13.068Z,13.1111111111
2018-04-24T01:03:25.508Z,13.1111111111
2018-04-24T01:03:37.928Z,13.1111111111
2018-04-24T01:03:50.334Z,13.1111111111
2018-04-24T01:04:02.749Z,13.1111111111
2018-04-24T01:04:15.147Z,13.1111111111
2018-04-24T01:04:27.580Z,13.1111111111
2018-04-24T01:04:40.002Z,13.1111111111
2018-04-24T01:04:52.416Z,13.1111111111
2018-04-24T01:05:04.971Z,13.1111111111
2018-04-24T01:05:17.417Z,13.1111111111
2018-04-24T01:05:29.828Z,13.1111111111
2018-04-24T01:05:42.237Z,13.1111111111
2018-04-24T01:05:54.642Z,13.1111111111
2018-04-24T01:06:07.071Z,13.1111111111
2018-04-24T01:06:19.488Z,13.1111111111
2018-04-24T01:06:31.893Z,13.1111111111
2018-04-24T01:06:44.594Z,13.1111111111
2018-04-24T01:06:57.290Z,13.1111111111
2018-04-24T01:07:09.689Z,13.0555555556
2018-04-24T01:07:22.114Z,13.1111111111
2018-04-24T01:07:34.522Z,13.0555555556
2018-04-24T01:07:46.909Z,13.0555555556
2018-04-24T01:07:59.323Z,13.0555555556
2018-04-24T01:08:11.722Z,13.0555555556
2018-04-24T01:08:24.121Z,13.0555555556
2018-04-24T01:08:36.518Z,13.0555555556
2018-04-24T01:08:48.941Z,13.0555555556
2018-04-24T01:09:01.373Z,13.0555555556
2018-04-24T01:09:13.794Z,13.0555555556
2018-04-24T01:09:26.212Z,13.0555555556
2018-04-24T01:09:38.675Z,13.0555555556
2018-04-24T01:09:51.091Z,13.0555555556
2018-04-24T01:10:03.546Z,13.0555555556
2018-04-24T01:10:15.967Z,13.0555555556
2018-04-24T01:10:28.364Z,13.0555555556
2018-04-24T01:10:40.778Z,13.0555555556
2018-04-24T01:10:53.192Z,13.0555555556
2018-04-24T01:11:05.604Z,13.0555555556
2018-04-24T01:11:18.088Z,13
2018-04-24T01:11:30.581Z,13
2018-04-24T01:11:43.038Z,13
2018-04-24T01:11:55.443Z,13
2018-04-24T01:12:07.850Z,13
2018-04-24T01:12:20.259Z,13
2018-04-24T01:12:32.676Z,13
2018-04-24T01:12:45.134Z,13
2018-04-24T01:12:57.529Z,13
2018-04-24T01:13:09.936Z,13
2018-04-24T01:13:22.344Z,13
2018-04-24T01:13:34.988Z,13
2018-04-24T01:13:47.398Z,13
2018-04-24T01:13:59.804Z,13
2018-04-24T01:14:12.217Z,13
2018-04-24T01:14:24.629Z,13
2018-04-24T01:14:37.022Z,13
2018-04-24T01:14:49.452Z,13
2018-04-24T01:15:01.877Z,12.9444444444
2018-04-24T01:15:14.265Z,13
2018-04-24T01:15:26.732Z,12.9444444444
2018-04-24T01:15:39.178Z,13
2018-04-24T01:15:51.589Z,12.9444444444
2018-04-24T01:16:04.005Z,12.9444444444
2018-04-24T01:16:16.422Z,12.9444444444
2018-04-24T01:16:28.831Z,13
2018-04-24T01:16:41.246Z,12.9444444444
2018-04-24T01:16:53.650Z,12.9444444444
2018-04-24T01:17:06.077Z,12.9444444444
2018-04-24T01:17:18.490Z,12.9444444444
2018-04-24T01:17:30.888Z,12.9444444444
2018-04-24T01:17:43.360Z,12.9444444444
2018-04-24T01:17:55.775Z,12.9444444444
2018-04-24T01:18:08.179Z,12.9444444444
2018-04-24T01:18:20.629Z,12.9444444444
2018-04-24T01:18:33.347Z,12.9444444444
2018-04-24T01:18:45.769Z,12.9444444444
2018-04-24T01:18:58.187Z,12.9444444444
2018-04-24T01:19:10.693Z,12.9444444444
2018-04-24T01:19:23.155Z,12.9444444444
2018-04-24T01:19:35.642Z,12.9444444444
2018-04-24T01:19:48.076Z,12.9444444444
2018-04-24T01:20:00.472Z,12.9444444444
2018-04-24T01:20:12.880Z,12.9444444444
2018-04-24T01:20:25.282Z,12.8888888889
2018-04-24T01:20:37.690Z,12.9444444444
2018-04-24T01:20:50.114Z,12.8888888889
2018-04-24T01:21:02.530Z,12.8888888889
2018-04-24T01:21:14.955Z,12.8888888889
2018-04-24T01:21:27.421Z,12.9444444444
2018-04-24T01:21:39.834Z,12.8888888889
2018-04-24T01:21:52.241Z,12.8888888889
2018-04-24T01:22:04.645Z,12.8888888889
2018-04-24T01:22:17.056Z,12.8888888889
2018-04-24T01:22:29.636Z,12.8888888889
2018-04-24T01:22:42.094Z,12.8888888889
2018-04-24T01:22:54.483Z,12.8888888889
2018-04-24T01:23:06.910Z,12.8888888889
2018-04-24T01:23:19.301Z,12.8333333333
2018-04-24T01:23:31.710Z,12.8888888889
2018-04-24T01:23:44.125Z,12.8333333333
2018-04-24T01:23:56.618Z,12.8888888889
2018-04-24T01:24:09.034Z,12.8333333333
2018-04-24T01:24:21.447Z,12.8333333333
2018-04-24T01:24:33.843Z,12.8888888889
2018-04-24T01:24:46.267Z,12.8333333333
2018-04-24T01:24:58.678Z,12.8333333333
2018-04-24T01:25:11.135Z,12.8333333333
2018-04-24T01:25:23.530Z,12.8333333333
2018-04-24T01:25:35.946Z,12.8333333333
2018-04-24T01:25:48.362Z,12.8333333333
2018-04-24T01:26:00.767Z,12.8333333333
2018-04-24T01:26:13.174Z,12.8333333333
2018-04-24T01:26:25.764Z,12.8333333333
2018-04-24T01:26:38.163Z,12.8333333333
2018-04-24T01:26:50.595Z,12.7777777778
2018-04-24T01:27:02.995Z,12.7777777778
2018-04-24T01:27:15.389Z,12.8333333333
2018-04-24T01:27:27.782Z,12.7777777778
2018-04-24T01:27:40.203Z,12.7777777778
2018-04-24T01:27:52.630Z,12.7777777778
2018-04-24T01:28:05.123Z,12.7777777778
2018-04-24T01:28:17.539Z,12.7777777778
2018-04-24T01:28:29.935Z,12.7777777778
2018-04-24T01:28:42.337Z,12.7777777778
2018-04-24T01:28:54.751Z,12.7777777778
2018-04-24T01:29:07.144Z,12.7777777778
2018-04-24T01:29:19.549Z,12.7777777778
2018-04-24T01:29:31.999Z,12.7777777778
2018-04-24T01:29:44.425Z,12.7777777778
2018-04-24T01:29:56.834Z,12.7777777778
2018-04-24T01:30:09.280Z,12.7777777778
2018-04-24T01:30:21.700Z,12.7777777778
2018-04-24T01:30:34.098Z,12.7777777778
2018-04-24T01:30:46.800Z,12.7777777778
2018-04-24T01:30:59.323Z,12.7777777778
2018-04-24T01:31:11.737Z,12.7777777778
2018-04-24T01:31:24.307Z,12.7777777778
2018-04-24T01:31:36.718Z,12.7777777778
2018-04-24T01:31:49.121Z,12.7777777778
2018-04-24T01:32:01.552Z,12.7777777778
2018-04-24T01:32:13.992Z,12.7777777778
2018-04-24T01:32:26.390Z,12.7777777778
2018-04-24T01:32:38.780Z,12.7777777778
2018-04-24T01:32:51.186Z,12.7777777778
2018-04-24T01:33:03.606Z,12.7222222222
2018-04-24T01:33:16.026Z,12.7777777778
2018-04-24T01:33:28.426Z,12.7777777778
2018-04-24T01:33:40.823Z,12.7777777778
2018-04-24T01:33:53.237Z,12.7777777778
2018-04-24T01:34:05.675Z,12.7222222222
2018-04-24T01:34:18.087Z,12.7222222222
2018-04-24T01:34:30.492Z,12.7777777778
2018-04-24T01:34:42.951Z,12.7777777778
2018-04-24T01:34:55.361Z,12.7777777778
2018-04-24T01:35:07.753Z,12.7777777778
2018-04-24T01:35:20.185Z,12.7777777778
2018-04-24T01:35:32.679Z,12.7777777778
2018-04-24T01:35:45.104Z,12.7222222222
2018-04-24T01:35:57.522Z,12.7777777778
2018-04-24T01:36:09.916Z,12.7222222222
2018-04-24T01:36:22.330Z,12.7777777778
2018-04-24T01:36:34.762Z,12.7777777778
2018-04-24T01:36:47.267Z,12.7777777778
2018-04-24T01:36:59.681Z,12.7222222222
2018-04-24T01:37:12.109Z,12.7222222222
2018-04-24T01:37:24.530Z,12.7222222222
2018-04-24T01:37:36.930Z,12.7222222222
2018-04-24T01:37:49.333Z,12.7222222222
2018-04-24T01:38:01.767Z,12.7222222222
2018-04-24T01:38:14.271Z,12.7222222222
2018-04-24T01:38:26.687Z,12.7222222222
2018-04-24T01:38:39.136Z,12.7222222222
2018-04-24T01:38:51.553Z,12.7222222222
2018-04-24T01:39:03.956Z,12.7222222222
2018-04-24T01:39:16.369Z,12.7222222222
2018-04-24T01:39:28.844Z,12.7222222222
2018-04-24T01:39:41.256Z,12.7222222222
2018-04-24T01:39:53.670Z,12.7222222222
2018-04-24T01:40:06.210Z,12.7777777778
2018-04-24T01:40:18.632Z,12.7222222222
2018-04-24T01:40:31.130Z,12.7222222222
2018-04-24T01:40:43.557Z,12.7222222222
2018-04-24T01:40:55.999Z,12.7222222222
2018-04-24T01:41:08.413Z,12.7222222222
2018-04-24T01:41:20.849Z,12.7222222222
2018-04-24T01:41:33.276Z,12.7222222222
2018-04-24T01:41:45.697Z,12.7222222222
2018-04-24T01:41:58.138Z,12.7222222222
2018-04-24T01:42:10.626Z,12.7222222222
2018-04-24T01:42:23.125Z,12.7222222222
2018-04-24T01:42:35.523Z,12.7222222222
2018-04-24T01:42:47.928Z,12.7222222222
2018-04-24T01:43:00.354Z,12.7222222222
2018-04-24T01:43:12.788Z,12.7222222222
2018-04-24T01:43:25.182Z,12.7222222222
2018-04-24T01:43:37.611Z,12.7222222222
2018-04-24T01:43:50.036Z,12.7222222222
2018-04-24T01:44:02.448Z,12.6666666667
2018-04-24T01:44:14.851Z,12.7222222222
2018-04-24T01:44:27.311Z,12.6666666667
2018-04-24T01:44:39.725Z,12.6666666667
2018-04-24T01:44:52.110Z,12.6666666667
2018-04-24T01:45:04.541Z,12.7222222222
2018-04-24T01:45:16.965Z,12.6666666667
2018-04-24T01:45:29.366Z,12.7222222222
2018-04-24T01:45:41.908Z,12.6666666667
2018-04-24T01:45:54.315Z,12.7222222222
2018-04-24T01:46:06.809Z,12.6666666667
2018-04-24T01:46:19.211Z,12.6666666667
2018-04-24T01:46:31.615Z,12.6666666667
2018-04-24T01:46:44.048Z,12.6666666667
2018-04-24T01:46:56.454Z,12.6666666667
2018-04-24T01:47:08.913Z,12.6666666667
2018-04-24T01:47:21.297Z,12.6111111111
2018-04-24T01:47:33.687Z,12.6666666667
2018-04-24T01:47:46.103Z,12.6666666667
2018-04-24T01:47:58.510Z,12.6666666667
2018-04-24T01:48:11.103Z,12.6666666667
2018-04-24T01:48:23.534Z,12.6111111111
2018-04-24T01:48:35.948Z,12.6111111111
2018-04-24T01:48:48.357Z,12.6111111111
2018-04-24T01:49:00.776Z,12.6111111111
2018-04-24T01:49:13.192Z,12.6666666667
2018-04-24T01:49:25.597Z,12.6111111111
2018-04-24T01:49:38.026Z,12.6111111111
2018-04-24T01:49:50.699Z,12.6111111111
2018-04-24T01:50:03.293Z,12.5555555556
2018-04-24T01:50:15.823Z,12.6111111111
2018-04-24T01:50:28.234Z,12.6111111111
2018-04-24T01:50:40.775Z,12.6111111111
2018-04-24T01:50:53.169Z,12.6111111111
2018-04-24T01:51:05.570Z,12.5555555556
2018-04-24T01:51:17.996Z,12.5555555556
2018-04-24T01:51:30.395Z,12.6111111111
2018-04-24T01:51:42.833Z,12.5555555556
2018-04-24T01:51:55.237Z,12.5555555556
2018-04-24T01:52:07.661Z,12.6111111111
2018-04-24T01:52:20.121Z,12.5555555556
2018-04-24T01:52:32.538Z,12.5555555556
2018-04-24T01:52:44.945Z,12.5555555556
2018-04-24T01:52:57.364Z,12.5555555556
2018-04-24T01:53:09.790Z,12.5555555556
2018-04-24T01:53:22.189Z,12.5555555556
2018-04-24T01:53:34.662Z,12.5555555556
2018-04-24T01:53:47.181Z,12.5555555556
2018-04-24T01:53:59.648Z,12.5555555556
2018-04-24T01:54:12.073Z,12.5555555556
2018-04-24T01:54:24.485Z,12.5555555556
2018-04-24T01:54:36.899Z,12.5555555556
2018-04-24T01:54:49.365Z,12.5555555556
2018-04-24T01:55:01.775Z,12.5555555556
2018-04-24T01:55:14.178Z,12.5555555556
2018-04-24T01:55:26.583Z,12.5555555556
2018-04-24T01:55:39.142Z,12.5555555556
2018-04-24T01:55:51.629Z,12.5555555556
2018-04-24T01:56:04.051Z,12.5
2018-04-24T01:56:16.464Z,12.5555555556
2018-04-24T01:56:28.863Z,12.5555555556
2018-04-24T01:56:41.291Z,12.5555555556
2018-04-24T01:56:53.695Z,12.5555555556
2018-04-24T01:57:06.098Z,12.5
2018-04-24T01:57:18.625Z,12.5555555556
2018-04-24T01:57:31.032Z,12.5555555556
2018-04-24T01:57:43.446Z,12.5555555556
2018-04-24T01:57:55.862Z,12.5555555556
2018-04-24T01:58:08.277Z,12.5
2018-04-24T01:58:20.681Z,12.5
2018-04-24T01:58:33.172Z,12.5555555556
2018-04-24T01:58:45.575Z,12.5555555556
2018-04-24T01:58:58.005Z,12.5555555556
2018-04-24T01:59:10.445Z,12.5
2018-04-24T01:59:22.931Z,12.5
2018-04-24T01:59:35.341Z,12.5
2018-04-24T01:59:47.748Z,12.5
2018-04-24T02:00:00.159Z,12.5
2018-04-24T02:00:12.609Z,12.5
2018-04-24T02:00:25.034Z,12.5
2018-04-24T02:00:37.489Z,12.5
2018-04-24T02:00:49.924Z,12.5
2018-04-24T02:01:02.374Z,12.5
2018-04-24T02:01:14.783Z,12.5
2018-04-24T02:01:27.213Z,12.5
2018-04-24T02:01:39.681Z,12.4444444444
2018-04-24T02:01:52.105Z,12.5
2018-04-24T02:02:04.524Z,12.5
2018-04-24T02:02:16.950Z,12.5
2018-04-24T02:02:29.354Z,12.4444444444
2018-04-24T02:02:41.788Z,12.4444444444
2018-04-24T02:02:54.200Z,12.4444444444
2018-04-24T02:03:06.638Z,12.4444444444
2018-04-24T02:03:19.065Z,12.4444444444
2018-04-24T02:03:31.471Z,12.4444444444
2018-04-24T02:03:43.891Z,12.4444444444
2018-04-24T02:03:56.311Z,12.4444444444
2018-04-24T02:04:08.799Z,12.4444444444
2018-04-24T02:04:21.214Z,12.4444444444
2018-04-24T02:04:33.631Z,12.4444444444
2018-04-24T02:04:46.132Z,12.3888888889
2018-04-24T02:04:58.654Z,12.4444444444
2018-04-24T02:05:11.083Z,12.4444444444
2018-04-24T02:05:23.494Z,12.3888888889
2018-04-24T02:05:35.942Z,12.3888888889
2018-04-24T02:05:48.358Z,12.3888888889
2018-04-24T02:06:00.764Z,12.4444444444
2018-04-24T02:06:13.190Z,12.4444444444
2018-04-24T02:06:25.622Z,12.3888888889
2018-04-24T02:06:38.076Z,12.4444444444
2018-04-24T02:06:50.516Z,12.3888888889
2018-04-24T02:07:02.919Z,12.3888888889
2018-04-24T02:07:15.324Z,12.4444444444
2018-04-24T02:07:27.737Z,12.3888888889
2018-04-24T02:07:40.169Z,12.3888888889
2018-04-24T02:07:52.591Z,12.3888888889
2018-04-24T02:08:04.999Z,12.3888888889
2018-04-24T02:08:17.479Z,12.3888888889
2018-04-24T02:08:29.906Z,12.3888888889
2018-04-24T02:08:42.319Z,12.3888888889
2018-04-24T02:08:54.729Z,12.3888888889
2018-04-24T02:09:07.146Z,12.3888888889
2018-04-24T02:09:19.557Z,12.3888888889
2018-04-24T02:09:31.947Z,12.3888888889
2018-04-24T02:09:44.379Z,12.3888888889
2018-04-24T02:09:56.789Z,12.3333333333
2018-04-24T02:10:09.205Z,12.3888888889
2018-04-24T02:10:21.605Z,12.3888888889
2018-04-24T02:10:34.082Z,12.3888888889